createdAt,value
2018-09-14T00:01:25.638Z,5.90
2018-09-14T00:03:54.221Z,6.60
2018-09-14T00:06:22.749Z,6.37
2018-09-14T00:08:51.198Z,5.90
2018-09-14T00:11:19.707Z,6.93
2018-09-14T00:13:48.182Z,5.63
2018-09-14T00:16:16.661Z,7.03
2018-09-14T00:18:45.161Z,6.33
2018-09-14T00:21:13.653Z,6.27
2018-09-14T00:23:42.158Z,4.83
2018-09-14T00:26:10.698Z,6.00
2018-09-14T00:28:39.188Z,6.03
2018-09-14T00:31:07.679Z,5.90
2018-09-14T00:33:36.199Z,6.43
2018-09-14T00:36:04.725Z,6.43
2018-09-14T00:38:33.216Z,5.90
2018-09-14T00:41:01.748Z,6.20
2018-09-14T00:43:30.185Z,6.70
2018-09-14T00:45:58.705Z,5.77
2018-09-14T00:48:27.183Z,5.87
2018-09-14T00:50:55.714Z,5.47
2018-09-14T00:53:24.184Z,5.43
2018-09-14T00:55:52.632Z,5.70
2018-09-14T00:58:21.122Z,6.03
2018-09-14T01:00:49.842Z,6.00
2018-09-14T01:03:18.374Z,5.50
2018-09-14T01:05:46.879Z,6.40
2018-09-14T01:08:15.407Z,6.00
2018-09-14T01:10:44.539Z,5.80
2018-09-14T01:13:13.057Z,6.73
2018-09-14T01:15:41.591Z,5.67
2018-09-14T01:18:10.068Z,5.50
2018-09-14T01:20:38.630Z,6.67
2018-09-14T01:23:07.094Z,5.60
2018-09-14T01:25:35.577Z,5.50
2018-09-14T01:28:04.091Z,5.40
2018-09-14T01:30:32.525Z,5.13
2018-09-14T01:33:01.016Z,4.93
2018-09-14T01:35:34.766Z,4.50
2018-09-14T01:38:03.273Z,5.00
2018-09-14T01:40:31.790Z,5.70
2018-09-14T01:43:00.319Z,5.03
2018-09-14T01:45:28.815Z,3.90
2018-09-14T01:47:57.347Z,4.67
2018-09-14T01:50:25.835Z,4.80
2018-09-14T01:52:54.361Z,4.80
2018-09-14T01:55:22.828Z,5.83
2018-09-14T01:57:51.316Z,4.10
2018-09-14T02:00:19.862Z,4.10
2018-09-14T02:02:48.351Z,4.67
2018-09-14T02:05:16.894Z,4.03
2018-09-14T02:07:45.362Z,4.77
2018-09-14T02:10:17.991Z,3.73
2018-09-14T02:12:46.425Z,3.90
2018-09-14T02:15:14.905Z,3.93
2018-09-14T02:17:43.379Z,4.57
2018-09-14T02:20:11.946Z,4.00
2018-09-14T02:22:40.392Z,4.43
2018-09-14T02:25:08.922Z,4.57
2018-09-14T02:27:37.426Z,4.17
2018-09-14T02:30:06.640Z,4.10
2018-09-14T02:32:35.155Z,5.27
2018-09-14T02:35:03.684Z,5.20
2018-09-14T02:37:32.209Z,4.30
2018-09-14T02:40:00.978Z,4.37
2018-09-14T02:42:29.498Z,4.87
2018-09-14T02:44:57.980Z,4.47
2018-09-14T02:47:26.619Z,5.17
2018-09-14T02:49:55.260Z,36.37
2018-09-14T02:52:23.781Z,3.97
2018-09-14T02:54:52.347Z,4.90
2018-09-14T02:57:20.837Z,4.30
2018-09-14T02:59:49.363Z,4.60
2018-09-14T03:02:17.894Z,4.47
2018-09-14T03:04:46.391Z,4.50
2018-09-14T03:07:14.949Z,4.90
2018-09-14T03:09:43.427Z,4.43
2018-09-14T03:12:11.955Z,5.17
2018-09-14T03:14:40.435Z,4.93
2018-09-14T03:17:09.034Z,4.97
2018-09-14T03:19:37.539Z,5.07
2018-09-14T03:22:06.092Z,6.17
2018-09-14T03:24:34.566Z,5.10
2018-09-14T03:27:03.058Z,6.50
2018-09-14T03:29:31.595Z,5.20
2018-09-14T03:32:00.099Z,5.03
2018-09-14T03:34:28.584Z,5.77
2018-09-14T03:36:57.140Z,5.70
2018-09-14T03:39:25.759Z,5.50
2018-09-14T03:41:54.199Z,5.63
2018-09-14T03:44:22.770Z,5.20
2018-09-14T03:46:51.449Z,4.93
2018-09-14T03:49:20.001Z,4.43
2018-09-14T03:51:48.500Z,5.47
2018-09-14T03:54:17.007Z,5.97
2018-09-14T03:56:45.535Z,5.50
2018-09-14T03:59:14.155Z,5.00
2018-09-14T04:01:42.743Z,4.60
2018-09-14T04:04:11.220Z,5.00
2018-09-14T04:06:40.264Z,4.80
2018-09-14T04:09:10.171Z,5.10
2018-09-14T04:11:38.694Z,4.33
2018-09-14T04:14:07.579Z,4.57
2018-09-14T04:16:36.062Z,4.93
2018-09-14T04:19:05.322Z,4.83
2018-09-14T04:21:35.906Z,4.50
2018-09-14T04:24:05.071Z,5.23
2018-09-14T04:26:33.542Z,3.90
2018-09-14T04:29:02.036Z,5.70
2018-09-14T04:31:30.572Z,4.17
2018-09-14T04:33:59.073Z,4.03
2018-09-14T04:36:28.538Z,3.67
2018-09-14T04:38:57.000Z,4.83
2018-09-14T04:41:25.481Z,4.07
2018-09-14T04:43:54.034Z,3.70
2018-09-14T04:46:22.608Z,4.00
2018-09-14T04:48:51.142Z,4.57
2018-09-14T04:51:19.690Z,3.97
2018-09-14T04:53:48.156Z,4.20
2018-09-14T04:56:16.656Z,4.73
2018-09-14T04:58:45.227Z,7.30
2018-09-14T05:01:13.717Z,6.10
2018-09-14T05:03:42.201Z,7.10
2018-09-14T05:06:10.719Z,5.87
2018-09-14T05:08:39.211Z,5.63
2018-09-14T05:11:07.710Z,5.40
2018-09-14T05:13:36.228Z,5.33
2018-09-14T05:16:04.691Z,4.77
2018-09-14T05:18:33.299Z,6.07
2018-09-14T05:21:01.998Z,5.73
2018-09-14T05:23:30.741Z,7.60
2018-09-14T05:25:59.266Z,6.27
2018-09-14T05:28:27.761Z,7.43
2018-09-14T05:30:56.792Z,6.60
2018-09-14T05:33:25.262Z,5.97
2018-09-14T05:35:53.775Z,6.07
2018-09-14T05:38:22.300Z,6.47
2018-09-14T05:40:50.802Z,6.87
2018-09-14T05:43:19.278Z,5.87
2018-09-14T05:45:47.784Z,6.53
2018-09-14T05:48:16.303Z,7.20
2018-09-14T05:50:44.839Z,6.70
2018-09-14T05:53:13.328Z,8.10
2018-09-14T05:55:42.165Z,9.20
2018-09-14T05:58:10.647Z,12.50
2018-09-14T06:00:39.215Z,18.40
2018-09-14T06:03:08.388Z,22.97
2018-09-14T06:05:36.882Z,21.50
2018-09-14T06:08:05.391Z,23.07
2018-09-14T06:10:33.924Z,30.00
2018-09-14T06:13:02.426Z,30.90
2018-09-14T06:15:30.914Z,32.40
2018-09-14T06:17:59.488Z,32.63
2018-09-14T06:20:27.987Z,33.70
2018-09-14T06:22:56.535Z,37.20
2018-09-14T06:25:25.054Z,36.30
2018-09-14T06:27:53.607Z,36.37
2018-09-14T06:30:22.153Z,35.73
2018-09-14T06:32:50.607Z,35.57
2018-09-14T06:35:19.139Z,34.47
2018-09-14T06:37:47.611Z,32.03
2018-09-14T06:40:16.753Z,30.37
2018-09-14T06:42:45.259Z,29.40
2018-09-14T06:45:13.812Z,30.37
2018-09-14T06:47:42.378Z,30.50
2018-09-14T06:50:10.872Z,25.63
2018-09-14T06:52:39.514Z,23.93
2018-09-14T06:55:08.690Z,24.20
2018-09-14T06:57:37.514Z,23.33
2018-09-14T07:00:06.070Z,23.00
2018-09-14T07:02:34.515Z,22.37
2018-09-14T07:05:03.054Z,23.10
2018-09-14T07:07:31.782Z,23.20
2018-09-14T07:10:00.279Z,21.47
2018-09-14T07:12:28.794Z,21.17
2018-09-14T07:14:57.389Z,21.17
2018-09-14T07:17:25.922Z,21.60
2018-09-14T07:19:54.643Z,19.60
2018-09-14T07:22:23.216Z,20.57
2018-09-14T07:24:51.921Z,19.73
2018-09-14T07:27:20.343Z,21.27
2018-09-14T07:29:49.221Z,19.40
2018-09-14T07:32:17.763Z,19.07
2018-09-14T07:34:46.287Z,19.17
2018-09-14T07:37:14.803Z,17.17
2018-09-14T07:39:43.458Z,15.80
2018-09-14T07:42:11.978Z,16.87
2018-09-14T07:44:40.480Z,14.77
2018-09-14T07:47:09.083Z,14.87
2018-09-14T07:49:37.603Z,13.63
2018-09-14T07:52:06.558Z,13.23
2018-09-14T07:54:35.026Z,13.17
2018-09-14T07:57:03.602Z,14.30
2018-09-14T07:59:32.122Z,13.53
2018-09-14T08:02:00.682Z,13.63
2018-09-14T08:04:29.246Z,12.87
2018-09-14T08:06:57.767Z,13.90
2018-09-14T08:09:26.314Z,13.67
2018-09-14T08:11:54.850Z,13.20
2018-09-14T08:14:23.368Z,12.93
2018-09-14T08:16:51.890Z,12.50
2018-09-14T08:19:20.459Z,12.70
2018-09-14T08:21:49.049Z,12.10
2018-09-14T08:24:17.514Z,10.67
2018-09-14T08:26:46.078Z,11.20
2018-09-14T08:29:14.583Z,9.80
2018-09-14T08:31:43.080Z,9.67
2018-09-14T08:34:11.679Z,10.17
2018-09-14T08:36:40.212Z,10.50
2018-09-14T08:39:11.467Z,12.80
2018-09-14T08:41:40.099Z,11.07
2018-09-14T08:44:08.627Z,9.90
2018-09-14T08:46:37.134Z,10.33
2018-09-14T08:49:05.663Z,11.47
2018-09-14T08:51:34.211Z,11.60
2018-09-14T08:54:02.713Z,10.10
2018-09-14T08:56:31.290Z,9.60
2018-09-14T08:58:59.790Z,10.07
2018-09-14T09:01:28.319Z,11.00
2018-09-14T09:03:56.892Z,11.00
2018-09-14T09:06:25.803Z,10.17
2018-09-14T09:08:54.338Z,9.70
2018-09-14T09:11:22.851Z,9.40
2018-09-14T09:13:51.408Z,9.63
2018-09-14T09:16:19.922Z,8.57
2018-09-14T09:18:48.405Z,8.40
2018-09-14T09:21:17.106Z,9.57
2018-09-14T09:23:45.554Z,8.47
2018-09-14T09:26:14.050Z,9.07
2018-09-14T09:28:42.815Z,7.10
2018-09-14T09:31:11.311Z,7.33
2018-09-14T09:33:39.807Z,5.97
2018-09-14T09:36:08.430Z,8.00
2018-09-14T09:38:36.959Z,8.10
2018-09-14T09:41:05.599Z,7.23
2018-09-14T09:43:34.311Z,7.90
2018-09-14T09:46:02.674Z,7.50
2018-09-14T09:48:32.091Z,8.30
2018-09-14T09:51:00.657Z,7.37
2018-09-14T09:53:29.138Z,7.50
2018-09-14T09:55:57.663Z,7.87
2018-09-14T09:58:26.220Z,7.23
2018-09-14T10:01:00.219Z,7.40
2018-09-14T10:03:33.878Z,7.90
2018-09-14T10:06:07.559Z,8.20
2018-09-14T10:08:36.199Z,8.70
2018-09-14T10:11:04.744Z,8.47
2018-09-14T10:13:33.731Z,7.63
2018-09-14T10:16:02.260Z,8.50
2018-09-14T10:18:30.802Z,7.67
2018-09-14T10:20:59.422Z,7.43
2018-09-14T10:23:27.880Z,8.10
2018-09-14T10:25:56.376Z,8.07
2018-09-14T10:28:24.898Z,7.67
2018-09-14T10:30:53.459Z,7.90
2018-09-14T10:33:21.971Z,9.30
2018-09-14T10:35:50.523Z,7.23
2018-09-14T10:38:19.038Z,8.53
2018-09-14T10:40:47.708Z,7.60
2018-09-14T10:43:16.314Z,8.20
2018-09-14T10:45:44.814Z,8.90
2018-09-14T10:48:13.330Z,9.67
2018-09-14T10:50:41.888Z,8.67
2018-09-14T10:53:10.518Z,7.73
2018-09-14T10:55:39.039Z,8.00
2018-09-14T10:58:07.591Z,8.83
2018-09-14T11:00:36.131Z,7.87
2018-09-14T11:03:04.702Z,7.13
2018-09-14T11:05:33.233Z,8.63
2018-09-14T11:08:01.782Z,7.93
2018-09-14T11:10:30.760Z,6.90
2018-09-14T11:12:59.332Z,8.00
2018-09-14T11:15:27.851Z,8.60
2018-09-14T11:17:57.079Z,9.27
2018-09-14T11:20:25.716Z,9.10
2018-09-14T11:22:54.194Z,8.70
2018-09-14T11:25:22.825Z,9.97
2018-09-14T11:27:51.390Z,9.20
2018-09-14T11:30:19.850Z,10.57
2018-09-14T11:32:48.364Z,9.47
2018-09-14T11:35:16.906Z,9.63
2018-09-14T11:37:45.631Z,9.77
2018-09-14T11:40:14.135Z,8.70
2018-09-14T11:42:43.208Z,9.93
2018-09-14T11:45:11.814Z,9.43
2018-09-14T11:47:40.301Z,9.97
2018-09-14T11:50:08.848Z,9.30
2018-09-14T11:52:37.365Z,10.60
2018-09-14T11:55:05.911Z,10.20
2018-09-14T11:57:34.459Z,9.33
2018-09-14T12:00:03.032Z,10.27
2018-09-14T12:02:31.543Z,10.07
2018-09-14T12:05:00.052Z,10.20
2018-09-14T12:07:28.702Z,10.60
2018-09-14T12:09:57.255Z,12.00
2018-09-14T12:12:25.811Z,10.47
2018-09-14T12:14:54.990Z,9.33
2018-09-14T12:17:24.302Z,9.43
2018-09-14T12:19:52.790Z,10.40
2018-09-14T12:22:21.461Z,10.17
2018-09-14T12:24:49.946Z,9.97
2018-09-14T12:27:18.458Z,10.20
2018-09-14T12:29:46.983Z,11.03
2018-09-14T12:32:15.494Z,10.80
2018-09-14T12:34:44.833Z,11.30
2018-09-14T12:37:13.361Z,10.43
2018-09-14T12:39:48.560Z,11.33
2018-09-14T12:42:17.062Z,10.80
2018-09-14T12:44:45.661Z,11.63
2018-09-14T12:47:14.178Z,12.67
2018-09-14T12:49:42.686Z,13.37
2018-09-14T12:52:11.292Z,13.20
2018-09-14T12:54:39.857Z,11.77
2018-09-14T12:57:08.347Z,12.60
2018-09-14T12:59:36.874Z,11.83
2018-09-14T13:02:05.407Z,13.40
2018-09-14T13:04:33.963Z,12.67
2018-09-14T13:07:02.517Z,11.37
2018-09-14T13:09:31.635Z,12.90
2018-09-14T13:12:00.159Z,11.73
2018-09-14T13:14:28.727Z,12.73
2018-09-14T13:16:59.838Z,12.93
2018-09-14T13:19:29.244Z,14.13
2018-09-14T13:21:57.825Z,14.73
2018-09-14T13:24:26.375Z,14.70
2018-09-14T13:26:54.916Z,13.43
2018-09-14T13:29:23.437Z,13.27
2018-09-14T13:31:51.942Z,14.70
2018-09-14T13:34:20.443Z,14.00
2018-09-14T13:36:49.287Z,13.97
2018-09-14T13:39:17.758Z,13.87
2018-09-14T13:41:46.286Z,11.17
2018-09-14T13:44:14.858Z,12.37
2018-09-14T13:46:43.366Z,12.20
2018-09-14T13:49:12.105Z,11.10
2018-09-14T13:51:40.574Z,13.17
2018-09-14T13:54:09.063Z,11.77
2018-09-14T13:56:37.580Z,11.33
2018-09-14T13:59:06.145Z,13.30
2018-09-14T14:01:34.716Z,12.00
2018-09-14T14:04:03.199Z,13.83
2018-09-14T14:06:31.706Z,13.00
2018-09-14T14:09:00.267Z,13.17
2018-09-14T14:11:28.874Z,12.13
2018-09-14T14:13:57.373Z,13.17
2018-09-14T14:16:25.988Z,12.90
2018-09-14T14:18:54.538Z,11.27
2018-09-14T14:21:23.102Z,12.10
2018-09-14T14:23:51.595Z,11.53
2018-09-14T14:26:20.120Z,11.73
2018-09-14T14:28:48.654Z,10.57
2018-09-14T14:31:17.175Z,11.37
2018-09-14T14:33:45.788Z,12.03
2018-09-14T14:36:14.646Z,11.67
2018-09-14T14:38:43.159Z,11.00
2018-09-14T14:41:11.733Z,11.80
2018-09-14T14:43:40.242Z,11.57
2018-09-14T14:46:08.791Z,11.30
2018-09-14T14:48:37.328Z,10.90
2018-09-14T14:51:05.871Z,11.70
2018-09-14T14:53:34.335Z,12.37
2018-09-14T14:56:02.853Z,12.13
2018-09-14T14:58:31.390Z,10.93
2018-09-14T15:00:59.925Z,12.60
2018-09-14T15:03:28.677Z,12.33
2018-09-14T15:05:57.227Z,13.20
2018-09-14T15:08:26.636Z,11.00
2018-09-14T15:10:55.172Z,10.80
2018-09-14T15:13:23.666Z,11.50
2018-09-14T15:15:52.230Z,14.40
2018-09-14T15:18:20.761Z,12.60
2018-09-14T15:20:49.370Z,12.00
2018-09-14T15:23:17.857Z,13.40
2018-09-14T15:25:46.379Z,12.90
2018-09-14T15:28:14.900Z,13.83
2018-09-14T15:30:43.422Z,12.93
2018-09-14T15:33:11.942Z,11.83
2018-09-14T15:35:40.474Z,12.63
2018-09-14T15:38:09.070Z,12.20
2018-09-14T15:40:37.554Z,11.80
2018-09-14T15:43:06.175Z,13.03
2018-09-14T15:45:34.678Z,11.40
2018-09-14T15:48:03.167Z,13.00
2018-09-14T15:50:31.666Z,13.97
2018-09-14T15:53:01.023Z,12.00
2018-09-14T15:55:29.570Z,14.40
2018-09-14T15:57:58.097Z,12.40
2018-09-14T16:00:26.541Z,12.00
2018-09-14T16:02:55.032Z,11.53
2018-09-14T16:05:23.577Z,10.97
2018-09-14T16:07:52.088Z,12.40
2018-09-14T16:10:20.575Z,12.40
2018-09-14T16:12:49.100Z,11.13
2018-09-14T16:15:17.814Z,11.30
2018-09-14T16:17:46.386Z,10.73
2018-09-14T16:20:14.857Z,10.10
2018-09-14T16:22:43.591Z,10.77
2018-09-14T16:25:12.066Z,9.10
2018-09-14T16:27:40.529Z,9.07
2018-09-14T16:30:09.095Z,8.00
2018-09-14T16:32:37.573Z,8.57
2018-09-14T16:35:06.078Z,8.53
2018-09-14T16:37:34.565Z,8.30
2018-09-14T16:40:03.083Z,8.57
2018-09-14T16:42:31.570Z,6.30
2018-09-14T16:45:00.134Z,5.50
2018-09-14T16:47:28.610Z,5.20
2018-09-14T16:49:57.091Z,4.90
2018-09-14T16:52:25.662Z,4.90
2018-09-14T16:54:56.953Z,3.70
2018-09-14T16:57:25.653Z,2.50
2018-09-14T16:59:54.227Z,4.33
2018-09-14T17:02:22.721Z,3.10
2018-09-14T17:04:51.277Z,3.57
2018-09-14T17:07:19.877Z,3.20
2018-09-14T17:09:48.377Z,2.50
2018-09-14T17:12:16.892Z,3.30
2018-09-14T17:14:45.441Z,2.90
2018-09-14T17:17:14.008Z,3.50
2018-09-14T17:19:42.513Z,3.37
2018-09-14T17:22:10.973Z,2.73
2018-09-14T17:24:39.457Z,3.13
2018-09-14T17:27:08.207Z,2.43
2018-09-14T17:29:36.661Z,2.83
2018-09-14T17:32:05.177Z,3.70
2018-09-14T17:34:33.693Z,3.60
2018-09-14T17:37:02.456Z,3.17
2018-09-14T17:39:30.989Z,3.93
2018-09-14T17:41:59.499Z,3.57
2018-09-14T17:44:28.063Z,3.30
2018-09-14T17:46:56.721Z,3.70
2018-09-14T17:49:25.182Z,3.60
2018-09-14T17:51:53.826Z,4.13
2018-09-14T17:54:22.398Z,3.90
2018-09-14T17:56:50.898Z,3.70
2018-09-14T17:59:19.411Z,3.23
2018-09-14T18:01:47.915Z,2.80
2018-09-14T18:04:16.406Z,2.83
2018-09-14T18:06:44.916Z,3.40
2018-09-14T18:09:13.389Z,2.83
2018-09-14T18:11:41.893Z,3.60
2018-09-14T18:14:10.669Z,3.10
2018-09-14T18:16:39.122Z,3.77
2018-09-14T18:19:07.633Z,3.00
2018-09-14T18:21:36.167Z,3.00
2018-09-14T18:24:04.643Z,3.53
2018-09-14T18:26:33.120Z,3.57
2018-09-14T18:29:01.610Z,3.80
2018-09-14T18:31:30.127Z,4.10
2018-09-14T18:33:58.609Z,3.40
2018-09-14T18:36:27.094Z,3.40
2018-09-14T18:38:55.594Z,4.03
2018-09-14T18:41:24.059Z,3.33
2018-09-14T18:43:52.556Z,3.70
2018-09-14T18:46:21.080Z,3.60
2018-09-14T18:48:49.607Z,3.50
2018-09-14T18:51:18.142Z,3.37
2018-09-14T18:53:46.625Z,3.60
2018-09-14T18:56:15.126Z,3.30
2018-09-14T18:58:43.604Z,2.90
2018-09-14T19:01:12.102Z,3.60
2018-09-14T19:03:40.581Z,3.23
2018-09-14T19:06:09.060Z,2.90
2018-09-14T19:08:37.613Z,2.83
2018-09-14T19:11:06.190Z,3.57
2018-09-14T19:13:34.681Z,3.10
2018-09-14T19:16:03.146Z,3.90
2018-09-14T19:18:31.666Z,3.80
2018-09-14T19:21:00.144Z,4.07
2018-09-14T19:23:28.667Z,3.80
2018-09-14T19:25:57.170Z,3.47
2018-09-14T19:28:25.679Z,3.73
2018-09-14T19:30:54.180Z,3.70
2018-09-14T19:33:22.666Z,4.27
2018-09-14T19:35:51.166Z,4.03
2018-09-14T19:38:19.684Z,5.30
2018-09-14T19:40:48.181Z,4.80
2018-09-14T19:43:16.654Z,4.90
2018-09-14T19:45:45.211Z,6.43
2018-09-14T19:48:13.934Z,5.50
2018-09-14T19:50:42.386Z,5.83
2018-09-14T19:53:10.842Z,5.80
2018-09-14T19:55:39.361Z,6.17
2018-09-14T19:58:07.813Z,6.30
2018-09-14T20:00:36.326Z,7.30
2018-09-14T20:03:04.821Z,7.00
2018-09-14T20:05:33.338Z,7.20
2018-09-14T20:08:01.842Z,7.13
2018-09-14T20:10:30.353Z,7.33
2018-09-14T20:12:59.116Z,7.67
2018-09-14T20:15:27.574Z,5.60
2018-09-14T20:17:56.071Z,6.77
2018-09-14T20:20:24.538Z,6.93
2018-09-14T20:22:53.303Z,6.10
2018-09-14T20:25:21.829Z,6.43
2018-09-14T20:27:50.326Z,7.00
2018-09-14T20:30:18.846Z,6.50
2018-09-14T20:32:47.326Z,6.47
2018-09-14T20:35:15.838Z,6.70
2018-09-14T20:37:44.317Z,6.90
2018-09-14T20:40:12.933Z,7.27
2018-09-14T20:42:41.414Z,7.50
2018-09-14T20:45:09.950Z,7.43
2018-09-14T20:47:38.514Z,6.33
2018-09-14T20:50:07.127Z,6.47
2018-09-14T20:52:35.554Z,6.90
2018-09-14T20:55:04.093Z,6.10
2018-09-14T20:57:32.612Z,5.43
2018-09-14T21:00:01.132Z,5.00
2018-09-14T21:02:29.634Z,4.50
2018-09-14T21:04:58.085Z,3.90
2018-09-14T21:07:26.626Z,5.10
2018-09-14T21:09:55.085Z,7.50
2018-09-14T21:12:23.551Z,4.67
2018-09-14T21:14:52.099Z,4.77
2018-09-14T21:17:20.613Z,4.23
2018-09-14T21:19:49.074Z,3.93
2018-09-14T21:22:17.611Z,3.40
2018-09-14T21:24:46.053Z,3.50
2018-09-14T21:27:14.530Z,3.97
2018-09-14T21:29:43.043Z,3.27
2018-09-14T21:32:11.498Z,4.37
2018-09-14T21:34:39.960Z,3.50
2018-09-14T21:37:08.425Z,3.43
2018-09-14T21:39:36.930Z,3.77
2018-09-14T21:42:05.456Z,3.70
2018-09-14T21:44:33.890Z,3.10
2018-09-14T21:47:02.405Z,3.90
2018-09-14T21:49:30.900Z,3.60
2018-09-14T21:51:59.453Z,4.30
2018-09-14T21:54:27.958Z,3.20
2018-09-14T21:56:56.422Z,3.83
2018-09-14T21:59:24.927Z,3.20
2018-09-14T22:01:53.688Z,3.33
2018-09-14T22:04:22.145Z,2.47
2018-09-14T22:06:50.602Z,3.10
2018-09-14T22:09:19.122Z,3.03
2018-09-14T22:11:47.625Z,2.80
2018-09-14T22:14:16.115Z,3.07
2018-09-14T22:16:44.609Z,2.73
2018-09-14T22:19:13.110Z,3.07
2018-09-14T22:21:41.604Z,2.87
2018-09-14T22:24:10.101Z,3.10
2018-09-14T22:26:38.606Z,2.70
2018-09-14T22:29:07.074Z,2.47
2018-09-14T22:31:35.643Z,2.80
2018-09-14T22:34:04.166Z,2.00
2018-09-14T22:36:32.613Z,2.37
2018-09-14T22:39:01.158Z,2.40
2018-09-14T22:41:29.658Z,2.60
2018-09-14T22:43:58.164Z,2.30
2018-09-14T22:46:26.709Z,2.80
2018-09-14T22:48:55.171Z,2.40
2018-09-14T22:51:23.880Z,2.03
2018-09-14T22:53:52.324Z,2.00
2018-09-14T22:56:27.620Z,2.30
2018-09-14T22:58:56.105Z,2.03
2018-09-14T23:01:24.557Z,2.80
2018-09-14T23:03:53.059Z,2.50
2018-09-14T23:06:21.645Z,3.03
2018-09-14T23:08:50.102Z,2.40
2018-09-14T23:11:18.602Z,2.80
2018-09-14T23:13:47.372Z,2.60
2018-09-14T23:16:15.848Z,2.40
2018-09-14T23:18:44.326Z,2.17
2018-09-14T23:21:12.895Z,2.37
2018-09-14T23:23:41.398Z,1.73
2018-09-14T23:26:13.506Z,2.30
2018-09-14T23:28:42.153Z,2.60
2018-09-14T23:31:10.657Z,2.30
2018-09-14T23:33:39.140Z,2.10
2018-09-14T23:36:07.716Z,2.63
2018-09-14T23:38:36.201Z,2.70
2018-09-14T23:41:04.729Z,2.20
2018-09-14T23:43:33.229Z,2.77
2018-09-14T23:46:01.776Z,2.40
2018-09-14T23:48:30.283Z,2.90
2018-09-14T23:50:58.734Z,2.60
2018-09-14T23:53:27.209Z,2.43
2018-09-14T23:55:55.762Z,2.60
2018-09-14T23:58:24.247Z,2.47
